createdAt,value
2023-04-22T00:01:06.802Z,15.63
2023-04-22T00:03:35.364Z,15.62
2023-04-22T00:06:02.540Z,15.62
2023-04-22T00:08:29.262Z,15.60
2023-04-22T00:10:56.751Z,15.63
2023-04-22T00:13:23.501Z,15.62
2023-04-22T00:15:52.722Z,15.61
2023-04-22T00:18:19.971Z,15.60
2023-04-22T00:20:48.443Z,15.60
2023-04-22T00:23:15.719Z,15.59
2023-04-22T00:25:42.595Z,15.57
2023-04-22T00:28:09.408Z,15.56
2023-04-22T00:30:36.747Z,15.52
2023-04-22T00:33:04.613Z,15.46
2023-04-22T00:35:31.606Z,15.38
2023-04-22T00:37:58.645Z,15.36
2023-04-22T00:40:25.388Z,15.36
2023-04-22T00:42:52.317Z,15.35
2023-04-22T00:45:21.956Z,15.31
2023-04-22T00:47:49.190Z,15.25
2023-04-22T00:50:16.476Z,15.18
2023-04-22T00:52:43.284Z,15.17
2023-04-22T00:55:11.244Z,15.17
2023-04-22T00:57:38.296Z,15.19
2023-04-22T01:00:06.718Z,15.19
2023-04-22T01:02:33.837Z,15.14
2023-04-22T01:05:01.281Z,15.11
2023-04-22T01:07:28.626Z,15.12
2023-04-22T01:09:55.628Z,15.13
2023-04-22T01:12:22.301Z,15.13
2023-04-22T01:14:49.561Z,15.14
2023-04-22T01:17:16.989Z,15.14
2023-04-22T01:19:44.396Z,15.18
2023-04-22T01:22:13.429Z,15.21
2023-04-22T01:24:40.684Z,15.21
2023-04-22T01:27:08.322Z,15.18
2023-04-22T01:29:38.077Z,15.13
2023-04-22T01:32:05.942Z,15.08
2023-04-22T01:34:33.192Z,15.05
2023-04-22T01:36:59.932Z,15.03
2023-04-22T01:39:27.002Z,15.04
2023-04-22T01:41:53.870Z,15.03
2023-04-22T01:44:20.646Z,15.05
2023-04-22T01:46:47.374Z,15.06
2023-04-22T01:49:14.113Z,15.05
2023-04-22T01:51:43.201Z,15.05
2023-04-22T01:54:10.301Z,15.05
2023-04-22T01:56:38.844Z,15.05
2023-04-22T01:59:07.643Z,15.04
2023-04-22T02:01:36.455Z,15.02
2023-04-22T02:04:06.400Z,14.94
2023-04-22T02:06:33.728Z,14.91
2023-04-22T02:09:04.782Z,14.92
2023-04-22T02:11:31.492Z,14.93
2023-04-22T02:13:58.534Z,14.92
2023-04-22T02:16:25.358Z,14.92
2023-04-22T02:18:52.150Z,14.88
2023-04-22T02:21:20.848Z,14.86
2023-04-22T02:23:47.727Z,14.85
2023-04-22T02:26:14.467Z,14.88
2023-04-22T02:28:42.812Z,14.88
2023-04-22T02:31:09.882Z,14.84
2023-04-22T02:33:39.252Z,14.85
2023-04-22T02:36:10.104Z,14.84
2023-04-22T02:38:38.222Z,14.84
2023-04-22T02:41:05.272Z,14.85
2023-04-22T02:43:32.391Z,14.81
2023-04-22T02:45:59.155Z,14.77
2023-04-22T02:48:26.178Z,14.73
2023-04-22T02:50:55.813Z,14.68
2023-04-22T02:53:22.724Z,14.61
2023-04-22T02:55:49.550Z,14.52
2023-04-22T02:58:17.719Z,14.48
2023-04-22T03:00:44.869Z,14.45
2023-04-22T03:03:12.073Z,14.43
2023-04-22T03:05:39.478Z,14.42
2023-04-22T03:08:06.274Z,14.41
2023-04-22T03:10:33.324Z,14.38
2023-04-22T03:13:02.336Z,14.36
2023-04-22T03:15:29.879Z,14.30
2023-04-22T03:17:56.873Z,14.28
2023-04-22T03:20:24.250Z,14.30
2023-04-22T03:22:53.859Z,14.31
2023-04-22T03:25:23.117Z,14.29
2023-04-22T03:27:53.271Z,14.24
2023-04-22T03:30:20.272Z,14.21
2023-04-22T03:32:47.793Z,14.11
2023-04-22T03:35:21.696Z,14.05
2023-04-22T03:37:50.891Z,14.02
2023-04-22T03:40:22.760Z,14.00
2023-04-22T03:42:49.778Z,13.98
2023-04-22T03:45:19.142Z,13.95
2023-04-22T03:47:53.341Z,13.89
2023-04-22T03:50:26.233Z,13.83
2023-04-22T03:52:54.361Z,13.79
2023-04-22T03:55:21.790Z,13.76
2023-04-22T03:57:51.349Z,13.72
2023-04-22T04:00:18.299Z,13.69
2023-04-22T04:02:51.937Z,13.66
2023-04-22T04:05:24.297Z,13.64
2023-04-22T04:07:51.279Z,13.63
2023-04-22T04:10:18.539Z,13.63
2023-04-22T04:12:45.921Z,13.63
2023-04-22T04:15:12.884Z,13.64
2023-04-22T04:17:40.145Z,13.62
2023-04-22T04:20:08.990Z,13.60
2023-04-22T04:22:36.678Z,13.59
2023-04-22T04:25:07.018Z,13.56
2023-04-22T04:27:39.531Z,13.53
2023-04-22T04:30:07.788Z,13.53
2023-04-22T04:32:43.254Z,13.54
2023-04-22T04:35:16.457Z,13.56
2023-04-22T04:37:47.702Z,13.59
2023-04-22T04:40:15.211Z,13.64
2023-04-22T04:42:48.209Z,13.68
2023-04-22T04:45:22.695Z,13.73
2023-04-22T04:47:50.904Z,13.76
2023-04-22T04:50:23.150Z,13.77
2023-04-22T04:52:50.841Z,13.77
2023-04-22T04:55:23.684Z,13.76
2023-04-22T04:57:51.361Z,13.80
2023-04-22T05:00:18.608Z,13.83
2023-04-22T05:02:46.470Z,13.89
2023-04-22T05:05:13.922Z,13.97
2023-04-22T05:07:44.270Z,14.06
2023-04-22T05:10:14.362Z,14.13
2023-04-22T05:12:41.740Z,14.22
2023-04-22T05:15:13.896Z,14.28
2023-04-22T05:17:42.230Z,14.34
2023-04-22T05:20:15.676Z,14.33
2023-04-22T05:22:43.612Z,14.33
2023-04-22T05:25:11.041Z,14.35
2023-04-22T05:27:42.735Z,14.31
2023-04-22T05:30:12.350Z,14.29
2023-04-22T05:32:40.875Z,14.26
2023-04-22T05:35:11.568Z,14.18
2023-04-22T05:37:42.749Z,14.07
2023-04-22T05:40:11.012Z,13.95
2023-04-22T05:42:38.355Z,13.90
2023-04-22T05:45:08.413Z,13.88
2023-04-22T05:47:41.160Z,13.87
2023-04-22T05:50:09.215Z,13.86
2023-04-22T05:52:49.793Z,13.80
2023-04-22T05:55:19.192Z,13.79
2023-04-22T05:57:46.161Z,13.82
2023-04-22T06:00:26.941Z,13.85
2023-04-22T06:03:12.548Z,13.89
2023-04-22T06:05:41.008Z,13.92
2023-04-22T06:08:08.144Z,14.00
2023-04-22T06:10:36.779Z,14.11
2023-04-22T06:13:03.792Z,14.20
2023-04-22T06:15:31.959Z,14.32
2023-04-22T06:17:59.649Z,14.46
2023-04-22T06:20:26.864Z,14.70
2023-04-22T06:22:54.578Z,16.12
2023-04-22T06:25:22.767Z,17.45
2023-04-22T06:27:49.965Z,17.97
2023-04-22T06:30:17.430Z,18.75
2023-04-22T06:32:44.471Z,19.02
2023-04-22T06:35:11.354Z,18.75
2023-04-22T06:37:38.281Z,18.13
2023-04-22T06:40:08.234Z,17.82
2023-04-22T06:42:53.451Z,18.02
2023-04-22T06:45:46.736Z,17.96
2023-04-22T06:48:23.334Z,17.28
2023-04-22T06:51:13.231Z,17.51
2023-04-22T06:53:40.190Z,19.41
2023-04-22T06:56:08.463Z,21.76
2023-04-22T06:58:35.605Z,23.15
2023-04-22T07:01:02.616Z,23.51
2023-04-22T07:03:31.908Z,23.46
2023-04-22T07:06:06.757Z,23.61
2023-04-22T07:08:34.232Z,23.23
2023-04-22T07:11:02.176Z,22.94
2023-04-22T07:13:37.930Z,23.24
2023-04-22T07:16:04.981Z,23.02
2023-04-22T07:18:33.025Z,22.26
2023-04-22T07:20:59.954Z,21.38
2023-04-22T07:23:26.823Z,20.62
2023-04-22T07:25:53.861Z,20.00
2023-04-22T07:28:20.894Z,19.62
2023-04-22T07:30:48.897Z,19.29
2023-04-22T07:33:16.150Z,19.00
2023-04-22T07:35:43.002Z,18.65
2023-04-22T07:38:10.677Z,18.42
2023-04-22T07:40:39.003Z,18.30
2023-04-22T07:43:06.499Z,18.19
2023-04-22T07:45:33.684Z,18.12
2023-04-22T07:48:00.749Z,18.18
2023-04-22T07:50:28.661Z,18.23
2023-04-22T07:52:55.774Z,18.22
2023-04-22T07:55:24.021Z,18.25
2023-04-22T07:57:50.720Z,18.39
2023-04-22T08:00:17.810Z,18.59
2023-04-22T08:02:44.779Z,18.72
2023-04-22T08:05:11.844Z,18.94
2023-04-22T08:07:39.801Z,19.20
2023-04-22T08:10:07.293Z,19.45
2023-04-22T08:12:34.145Z,19.66
2023-04-22T08:15:02.389Z,19.71
2023-04-22T08:17:29.360Z,19.80
2023-04-22T08:19:56.094Z,20.19
2023-04-22T08:22:23.999Z,20.82
2023-04-22T08:24:51.005Z,21.14
2023-04-22T08:27:19.445Z,21.64
2023-04-22T08:29:46.253Z,22.79
2023-04-22T08:32:13.202Z,24.18
2023-04-22T08:34:40.400Z,25.68
2023-04-22T08:37:08.179Z,26.50
2023-04-22T08:39:35.072Z,26.79
2023-04-22T08:42:02.393Z,27.02
2023-04-22T08:44:30.553Z,27.16
2023-04-22T08:46:59.527Z,27.54
2023-04-22T08:49:28.718Z,29.23
2023-04-22T08:51:56.664Z,31.30
2023-04-22T08:54:24.465Z,33.23
2023-04-22T08:56:52.098Z,34.19
2023-04-22T08:59:20.618Z,34.49
2023-04-22T09:01:52.171Z,35.80
2023-04-22T09:04:19.672Z,35.69
2023-04-22T09:06:47.149Z,34.57
2023-04-22T09:09:14.825Z,33.82
2023-04-22T09:11:48.256Z,33.29
2023-04-22T09:14:20.015Z,32.24
2023-04-22T09:16:48.625Z,31.19
2023-04-22T09:19:23.099Z,29.86
2023-04-22T09:21:54.297Z,29.68
2023-04-22T09:24:21.705Z,30.00
2023-04-22T09:26:49.868Z,29.94
2023-04-22T09:29:18.158Z,29.93
2023-04-22T09:31:50.249Z,31.28
2023-04-22T09:34:17.501Z,32.74
2023-04-22T09:36:46.896Z,34.62
2023-04-22T09:39:14.935Z,37.33
2023-04-22T09:41:45.912Z,39.93
2023-04-22T09:44:20.483Z,40.38
2023-04-22T09:46:51.347Z,38.87
2023-04-22T09:49:21.351Z,37.87
2023-04-22T09:51:49.829Z,36.42
2023-04-22T09:54:16.777Z,36.20
2023-04-22T09:56:53.888Z,36.17
2023-04-22T09:59:28.737Z,35.42
2023-04-22T10:02:04.290Z,37.66
2023-04-22T10:04:31.307Z,39.89
2023-04-22T10:06:58.381Z,41.37
2023-04-22T10:09:26.115Z,42.48
2023-04-22T10:11:55.230Z,43.26
2023-04-22T10:14:22.123Z,44.65
2023-04-22T10:16:52.177Z,46.15
2023-04-22T10:19:23.896Z,47.29
2023-04-22T10:21:59.194Z,48.15
2023-04-22T10:24:28.393Z,48.87
2023-04-22T10:26:57.901Z,48.84
2023-04-22T10:29:26.938Z,49.08
2023-04-22T10:32:03.738Z,48.88
2023-04-22T10:34:34.328Z,48.38
2023-04-22T10:37:02.242Z,45.35
2023-04-22T10:39:29.856Z,43.22
2023-04-22T10:42:09.956Z,42.04
2023-04-22T10:44:51.043Z,40.24
2023-04-22T10:47:33.002Z,39.29
2023-04-22T10:50:09.896Z,41.31
2023-04-22T10:52:37.208Z,43.92
2023-04-22T10:55:04.394Z,46.68
2023-04-22T10:57:41.726Z,48.28
2023-04-22T11:00:23.744Z,49.45
2023-04-22T11:03:05.784Z,50.72
2023-04-22T11:05:34.283Z,51.09
2023-04-22T11:08:14.538Z,50.34
2023-04-22T11:10:47.549Z,50.49
2023-04-22T11:13:17.110Z,50.84
2023-04-22T11:15:54.265Z,50.04
2023-04-22T11:18:27.153Z,49.34
2023-04-22T11:20:54.700Z,49.97
2023-04-22T11:23:28.772Z,50.94
2023-04-22T11:26:00.430Z,51.15
2023-04-22T11:28:27.538Z,50.21
2023-04-22T11:31:04.324Z,49.56
2023-04-22T11:33:34.754Z,48.94
2023-04-22T11:36:01.919Z,49.36
2023-04-22T11:38:29.027Z,49.28
2023-04-22T11:40:58.520Z,49.29
2023-04-22T11:43:26.144Z,49.41
2023-04-22T11:45:56.371Z,49.47
2023-04-22T11:48:24.652Z,47.66
2023-04-22T11:51:12.902Z,44.83
2023-04-22T11:53:49.634Z,42.52
2023-04-22T11:56:16.489Z,41.36
2023-04-22T11:58:44.343Z,42.89
2023-04-22T12:01:14.237Z,43.49
2023-04-22T12:03:45.450Z,41.95
2023-04-22T12:06:12.510Z,39.28
2023-04-22T12:08:44.385Z,37.20
2023-04-22T12:11:12.577Z,35.55
2023-04-22T12:13:41.651Z,34.40
2023-04-22T12:16:15.787Z,33.68
2023-04-22T12:18:53.943Z,32.92
2023-04-22T12:21:23.853Z,32.41
2023-04-22T12:23:56.141Z,31.68
2023-04-22T12:26:26.374Z,31.24
2023-04-22T12:28:55.203Z,30.45
2023-04-22T12:31:24.953Z,29.68
2023-04-22T12:33:56.543Z,28.90
2023-04-22T12:36:23.906Z,28.40
2023-04-22T12:38:52.443Z,28.07
2023-04-22T12:41:25.039Z,27.79
2023-04-22T12:43:55.832Z,27.53
2023-04-22T12:46:23.160Z,27.36
2023-04-22T12:48:56.905Z,27.23
2023-04-22T12:51:24.141Z,27.06
2023-04-22T12:53:51.313Z,26.94
2023-04-22T12:56:21.319Z,26.88
2023-04-22T12:58:48.497Z,26.81
2023-04-22T13:01:18.223Z,26.66
2023-04-22T13:03:47.003Z,26.44
2023-04-22T13:06:14.016Z,26.28
2023-04-22T13:08:51.938Z,26.13
2023-04-22T13:11:18.874Z,26.08
2023-04-22T13:13:58.187Z,26.02
2023-04-22T13:16:25.205Z,25.82
2023-04-22T13:18:53.104Z,25.67
2023-04-22T13:21:20.491Z,25.65
2023-04-22T13:23:51.495Z,25.51
2023-04-22T13:26:19.116Z,25.41
2023-04-22T13:28:45.963Z,25.31
2023-04-22T13:31:13.027Z,25.15
2023-04-22T13:33:40.840Z,24.98
2023-04-22T13:36:08.325Z,24.87
2023-04-22T13:38:35.502Z,24.76
2023-04-22T13:41:03.438Z,24.70
2023-04-22T13:43:31.578Z,24.61
2023-04-22T13:45:59.985Z,24.45
2023-04-22T13:48:27.680Z,24.39
2023-04-22T13:50:54.712Z,24.38
2023-04-22T13:53:21.706Z,24.45
2023-04-22T13:55:48.972Z,24.48
2023-04-22T13:58:16.875Z,24.58
2023-04-22T14:00:44.053Z,24.78
2023-04-22T14:03:12.949Z,25.15
2023-04-22T14:05:41.088Z,25.42
2023-04-22T14:08:07.949Z,25.54
2023-04-22T14:10:35.197Z,25.58
2023-04-22T14:13:02.451Z,25.54
2023-04-22T14:15:29.358Z,25.26
2023-04-22T14:17:56.298Z,25.00
2023-04-22T14:20:25.257Z,24.73
2023-04-22T14:22:52.274Z,24.51
2023-04-22T14:25:21.802Z,24.45
2023-04-22T14:27:49.945Z,24.34
2023-04-22T14:30:17.104Z,24.34
2023-04-22T14:32:44.576Z,24.37
2023-04-22T14:35:12.100Z,24.38
2023-04-22T14:37:46.979Z,24.50
2023-04-22T14:40:23.340Z,24.63
2023-04-22T14:42:51.161Z,24.62
2023-04-22T14:45:21.098Z,24.54
2023-04-22T14:47:48.734Z,24.47
2023-04-22T14:50:18.810Z,24.50
2023-04-22T14:52:46.825Z,24.60
2023-04-22T14:55:23.292Z,24.69
2023-04-22T14:57:54.403Z,24.80
2023-04-22T15:00:21.537Z,24.88
2023-04-22T15:02:50.221Z,25.03
2023-04-22T15:05:18.221Z,25.19
2023-04-22T15:07:45.366Z,25.47
2023-04-22T15:10:12.495Z,25.63
2023-04-22T15:12:43.220Z,25.61
2023-04-22T15:15:13.468Z,25.60
2023-04-22T15:17:41.345Z,25.55
2023-04-22T15:20:09.597Z,25.50
2023-04-22T15:22:37.067Z,25.42
2023-04-22T15:25:04.731Z,25.29
2023-04-22T15:27:34.804Z,25.24
2023-04-22T15:30:04.364Z,25.21
2023-04-22T15:32:31.701Z,25.17
2023-04-22T15:34:58.875Z,25.19
2023-04-22T15:37:25.962Z,25.26
2023-04-22T15:39:52.682Z,25.28
2023-04-22T15:42:19.552Z,25.30
2023-04-22T15:44:46.439Z,25.31
2023-04-22T15:47:13.597Z,25.30
2023-04-22T15:49:40.896Z,25.27
2023-04-22T15:52:08.501Z,25.10
2023-04-22T15:54:38.787Z,25.00
2023-04-22T15:57:09.454Z,24.95
2023-04-22T15:59:40.558Z,24.89
2023-04-22T16:02:09.377Z,24.80
2023-04-22T16:04:36.530Z,24.73
2023-04-22T16:07:06.137Z,24.62
2023-04-22T16:09:33.273Z,24.51
2023-04-22T16:12:00.169Z,24.48
2023-04-22T16:14:27.015Z,24.46
2023-04-22T16:16:53.814Z,24.44
2023-04-22T16:19:20.963Z,24.43
2023-04-22T16:21:48.832Z,24.37
2023-04-22T16:24:15.777Z,24.27
2023-04-22T16:26:43.122Z,24.19
2023-04-22T16:29:10.063Z,24.04
2023-04-22T16:31:38.665Z,23.85
2023-04-22T16:34:05.679Z,23.71
2023-04-22T16:36:32.762Z,23.60
2023-04-22T16:39:03.941Z,23.44
2023-04-22T16:41:31.311Z,23.27
2023-04-22T16:44:01.178Z,23.12
2023-04-22T16:46:28.009Z,23.06
2023-04-22T16:48:55.180Z,23.01
2023-04-22T16:51:22.141Z,23.00
2023-04-22T16:53:49.163Z,23.01
2023-04-22T16:56:16.108Z,23.00
2023-04-22T16:58:43.089Z,22.98
2023-04-22T17:01:10.150Z,22.95
2023-04-22T17:03:37.857Z,22.96
2023-04-22T17:06:04.761Z,22.97
2023-04-22T17:08:31.497Z,22.99
2023-04-22T17:10:58.444Z,22.95
2023-04-22T17:13:25.388Z,22.92
2023-04-22T17:15:52.433Z,22.93
2023-04-22T17:18:19.178Z,22.86
2023-04-22T17:20:46.279Z,22.84
2023-04-22T17:23:12.962Z,22.77
2023-04-22T17:25:39.744Z,22.72
2023-04-22T17:28:06.590Z,22.70
2023-04-22T17:30:33.731Z,22.68
2023-04-22T17:33:01.145Z,22.65
2023-04-22T17:35:28.821Z,22.62
2023-04-22T17:37:57.791Z,22.56
2023-04-22T17:40:25.364Z,22.47
2023-04-22T17:42:52.519Z,22.41
2023-04-22T17:45:19.303Z,22.31
2023-04-22T17:47:48.479Z,22.27
2023-04-22T17:50:15.513Z,22.22
2023-04-22T17:52:43.954Z,22.15
2023-04-22T17:55:11.034Z,22.06
2023-04-22T17:57:37.808Z,21.96
2023-04-22T18:00:06.208Z,21.85
2023-04-22T18:02:34.501Z,21.75
2023-04-22T18:05:01.340Z,21.62
2023-04-22T18:07:27.990Z,21.59
2023-04-22T18:09:54.841Z,21.53
2023-04-22T18:12:24.153Z,21.46
2023-04-22T18:14:50.777Z,21.40
2023-04-22T18:17:20.130Z,21.33
2023-04-22T18:19:50.902Z,21.27
2023-04-22T18:22:19.371Z,21.22
2023-04-22T18:24:46.112Z,21.17
2023-04-22T18:27:12.856Z,21.14
2023-04-22T18:29:39.731Z,21.07
2023-04-22T18:32:06.590Z,21.00
2023-04-22T18:34:33.381Z,20.94
2023-04-22T18:37:00.383Z,20.86
2023-04-22T18:39:27.137Z,20.80
2023-04-22T18:41:53.937Z,20.75
2023-04-22T18:44:20.923Z,20.70
2023-04-22T18:46:47.619Z,20.67
2023-04-22T18:49:14.469Z,20.63
2023-04-22T18:51:41.993Z,20.60
2023-04-22T18:54:09.724Z,20.57
2023-04-22T18:56:36.695Z,20.56
2023-04-22T18:59:03.536Z,20.52
2023-04-22T19:01:30.726Z,20.47
2023-04-22T19:03:57.905Z,20.44
2023-04-22T19:06:24.604Z,20.42
2023-04-22T19:08:56.011Z,20.38
2023-04-22T19:11:24.866Z,20.36
2023-04-22T19:13:53.805Z,20.34
2023-04-22T19:16:21.046Z,20.33
2023-04-22T19:18:48.771Z,20.31
2023-04-22T19:21:18.080Z,20.27
2023-04-22T19:23:44.874Z,20.25
2023-04-22T19:26:11.617Z,20.25
2023-04-22T19:28:38.380Z,20.25
2023-04-22T19:31:05.519Z,20.22
2023-04-22T19:33:32.394Z,20.20
2023-04-22T19:35:59.300Z,20.16
2023-04-22T19:38:26.407Z,20.07
2023-04-22T19:40:54.593Z,20.03
2023-04-22T19:43:22.390Z,20.04
2023-04-22T19:45:49.399Z,20.03
2023-04-22T19:48:17.223Z,19.97
2023-04-22T19:50:44.755Z,19.89
2023-04-22T19:53:12.326Z,19.80
2023-04-22T19:55:39.850Z,19.70
2023-04-22T19:58:07.924Z,19.65
2023-04-22T20:00:35.635Z,19.60
2023-04-22T20:03:03.491Z,19.57
2023-04-22T20:05:30.669Z,19.55
2023-04-22T20:07:58.761Z,19.52
2023-04-22T20:10:26.608Z,19.48
2023-04-22T20:12:53.887Z,19.46
2023-04-22T20:15:21.323Z,19.40
2023-04-22T20:17:49.186Z,19.33
2023-04-22T20:20:17.658Z,19.26
2023-04-22T20:22:46.202Z,19.23
2023-04-22T20:25:17.164Z,19.22
2023-04-22T20:27:44.534Z,19.13
2023-04-22T20:30:13.985Z,19.01
2023-04-22T20:32:42.036Z,18.97
2023-04-22T20:35:12.472Z,18.90
2023-04-22T20:37:40.276Z,18.81
2023-04-22T20:40:11.310Z,18.77
2023-04-22T20:42:38.239Z,18.66
2023-04-22T20:45:06.416Z,18.57
2023-04-22T20:47:36.180Z,18.57
2023-04-22T20:50:03.946Z,18.54
2023-04-22T20:52:30.718Z,18.53
2023-04-22T20:54:59.801Z,18.56
2023-04-22T20:57:26.830Z,18.59
2023-04-22T20:59:55.533Z,18.60
2023-04-22T21:02:24.664Z,18.60
2023-04-22T21:04:52.455Z,18.63
2023-04-22T21:07:21.471Z,18.66
2023-04-22T21:09:48.318Z,18.68
2023-04-22T21:12:17.383Z,18.69
2023-04-22T21:14:46.997Z,18.70
2023-04-22T21:17:27.434Z,18.70
2023-04-22T21:19:57.606Z,18.64
2023-04-22T21:22:25.765Z,18.61
2023-04-22T21:24:56.142Z,18.58
2023-04-22T21:27:23.286Z,18.57
2023-04-22T21:29:50.788Z,18.57
2023-04-22T21:32:20.154Z,18.54
2023-04-22T21:34:47.113Z,18.51
2023-04-22T21:37:14.147Z,18.47
2023-04-22T21:39:41.449Z,18.45
2023-04-22T21:42:10.919Z,18.43
2023-04-22T21:44:38.145Z,18.40
2023-04-22T21:47:05.969Z,18.37
2023-04-22T21:49:32.784Z,18.39
2023-04-22T21:51:59.701Z,18.39
2023-04-22T21:54:26.683Z,18.37
2023-04-22T21:56:53.454Z,18.35
2023-04-22T21:59:24.876Z,18.34
2023-04-22T22:01:52.133Z,18.30
2023-04-22T22:04:19.917Z,18.28
2023-04-22T22:06:47.161Z,18.24
2023-04-22T22:09:14.220Z,18.11
2023-04-22T22:11:42.279Z,18.13
2023-04-22T22:14:09.362Z,18.16
2023-04-22T22:16:38.542Z,18.20
2023-04-22T22:19:06.452Z,18.17
2023-04-22T22:21:33.409Z,18.07
2023-04-22T22:24:00.788Z,18.01
2023-04-22T22:26:28.146Z,17.96
2023-04-22T22:28:55.740Z,17.93
2023-04-22T22:31:23.386Z,17.86
2023-04-22T22:33:50.798Z,17.75
2023-04-22T22:36:17.985Z,17.74
2023-04-22T22:38:45.057Z,17.76
2023-04-22T22:41:14.252Z,17.73
2023-04-22T22:43:41.402Z,17.70
2023-04-22T22:46:08.554Z,17.71
2023-04-22T22:48:35.555Z,17.72
2023-04-22T22:51:02.523Z,17.73
2023-04-22T22:53:29.466Z,17.70
2023-04-22T22:55:58.996Z,17.59
2023-04-22T22:58:27.002Z,17.54
2023-04-22T23:00:54.179Z,17.53
2023-04-22T23:03:21.385Z,17.48
2023-04-22T23:05:48.659Z,17.37
2023-04-22T23:08:16.585Z,17.34
2023-04-22T23:10:43.492Z,17.25
2023-04-22T23:13:10.349Z,17.20
2023-04-22T23:15:37.870Z,17.24
2023-04-22T23:18:06.485Z,17.27
2023-04-22T23:20:34.240Z,17.29
2023-04-22T23:23:03.881Z,17.34
2023-04-22T23:25:31.068Z,17.34
2023-04-22T23:27:58.378Z,17.30
2023-04-22T23:30:25.612Z,17.37
2023-04-22T23:32:57.480Z,17.41
2023-04-22T23:35:27.602Z,17.42
2023-04-22T23:37:54.782Z,17.43
2023-04-22T23:40:21.669Z,17.42
2023-04-22T23:42:48.546Z,17.39
2023-04-22T23:45:18.207Z,17.33
2023-04-22T23:47:44.957Z,17.31
2023-04-22T23:50:14.134Z,17.21
2023-04-22T23:52:44.888Z,16.92
2023-04-22T23:55:13.941Z,16.80
2023-04-22T23:57:41.134Z,16.84
